This is the latest recevied weather packets stored in our database for station/object DL4JCP-6. If no packets are shown the sender has not sent any weather packets the latest 1 day(s).
| Time | Temp. | Humidity | Pressure | Rain* | Wind** | Luminosity | Snow |
|---|---|---|---|---|---|---|---|
| 1778072592 | 16.11° C | 70% | 1007.4 hPa | 0 mm | - | - | - |
| 1778072129 | 15.56° C | 69% | 1007.3 hPa | 0 mm | - | - | - |
| 1778071228 | 15.56° C | 70% | 1007.4 hPa | 0 mm | - | - | - |
| 1778070791 | 16.11° C | 70% | 1007.4 hPa | 0 mm | - | - | - |
| 1778070630 | 16.11° C | 70% | 1007.4 hPa | 0 mm | - | - | - |
| 1778068991 | 15.56° C | 72% | 1007.7 hPa | 0 mm | - | - | - |
| 1778068528 | 15.56° C | 71% | 1007.7 hPa | 0 mm | - | - | - |
| 1778068228 | 15.56° C | 71% | 1007.7 hPa | 0 mm | - | - | - |
| 1778068095 | 15.56° C | 73% | 1007.7 hPa | 0 mm | - | - | - |
| 1778067928 | 15.56° C | 73% | 1007.7 hPa | 0 mm | - | - | - |
| 1778067191 | 15.56° C | 73% | 1007.7 hPa | 0 mm | - | - | - |
| 1778066728 | 15.56° C | 73% | 1007.7 hPa | 0 mm | - | - | - |
| 1778066427 | 15.56° C | 73% | 1007.6 hPa | 0 mm | - | - | - |
| 1778066291 | 15.56° C | 71% | 1007.8 hPa | 0 mm | - | - | - |
| 1778065392 | 15.56° C | 74% | 1007.9 hPa | 0 mm | - | - | - |
| 1778065228 | 15.56° C | 74% | 1007.9 hPa | 0 mm | - | - | - |
| 1778064928 | 15.56° C | 74% | 1007.9 hPa | 0 mm | - | - | - |
| 1778064628 | 15.56° C | 73% | 1007.9 hPa | 0 mm | - | - | - |
| 1778063619 | 15° C | 75% | 1007.8 hPa | 0 mm | - | - | - |
| 1778062527 | 14.44° C | 75% | 1007.8 hPa | 0 mm | - | - | - |
| 1778061927 | 15° C | 77% | 1007.9 hPa | 0 mm | - | - | - |
| 1778061791 | 15° C | 75% | 1008 hPa | 0 mm | - | - | - |
| 1778061627 | 15° C | 75% | 1008 hPa | 0 mm | - | - | - |
| 1778060894 | 15° C | 74% | 1007.9 hPa | 0 mm | - | - | - |
| 1778050994 | 12.22° C | 86% | 1006.6 hPa | 0 mm | - | - | - |
* Rain latest hour (hover to see other rain measurements)
** Current wind speed in m/s (hover to see current wind gust speed)